createdAt,value
2022-12-19T00:00:14.749Z,86.63
2022-12-19T00:01:26.856Z,85.79
2022-12-19T00:02:32.733Z,83.49
2022-12-19T00:03:39.463Z,83.95
2022-12-19T00:04:42.853Z,82.56
2022-12-19T00:05:48.876Z,82.69
2022-12-19T00:06:52.165Z,82.57
2022-12-19T00:07:59.034Z,81.34
2022-12-19T00:09:06.853Z,82.11
2022-12-19T00:10:13.534Z,84.05
2022-12-19T00:11:18.952Z,85.21
2022-12-19T00:12:24.804Z,84.05
2022-12-19T00:13:35.288Z,81.78
2022-12-19T00:14:50.735Z,82.62
2022-12-19T00:15:54.545Z,83.77
2022-12-19T00:17:00.431Z,84.33
2022-12-19T00:18:05.677Z,86.12
2022-12-19T00:19:15.784Z,87.07
2022-12-19T00:20:19.471Z,84.51
2022-12-19T00:21:28.414Z,84.07
2022-12-19T00:22:31.757Z,86.67
2022-12-19T00:23:38.839Z,86.37
2022-12-19T00:24:42.915Z,86.61
2022-12-19T00:25:48.847Z,86.14
2022-12-19T00:26:52.131Z,88.41
2022-12-19T00:27:58.639Z,87.02
2022-12-19T00:29:11.164Z,87.20
2022-12-19T00:30:24.115Z,89.34
2022-12-19T00:31:31.630Z,91.55
2022-12-19T00:32:37.764Z,89.44
2022-12-19T00:33:43.401Z,87.28
2022-12-19T00:34:51.000Z,90.40
2022-12-19T00:35:59.098Z,89.82
2022-12-19T00:37:05.011Z,90.68
2022-12-19T00:38:08.417Z,90.07
2022-12-19T00:39:14.698Z,91.01
2022-12-19T00:40:18.427Z,93.27
2022-12-19T00:41:28.398Z,91.59
2022-12-19T00:42:32.338Z,90.76
2022-12-19T00:43:38.532Z,91.69
2022-12-19T00:44:42.002Z,89.19
2022-12-19T00:45:50.666Z,91.59
2022-12-19T00:46:54.907Z,94.05
2022-12-19T00:48:00.801Z,89.71
2022-12-19T00:49:06.535Z,86.90
2022-12-19T00:50:13.801Z,88.20
2022-12-19T00:51:21.335Z,90.04
2022-12-19T00:52:28.092Z,88.93
2022-12-19T00:53:34.827Z,89.57
2022-12-19T00:54:42.096Z,89.33
2022-12-19T00:55:45.337Z,87.40
2022-12-19T00:56:51.351Z,86.08
2022-12-19T00:57:55.550Z,85.55
2022-12-19T00:59:05.884Z,85.42
2022-12-19T01:00:12.099Z,85.69
2022-12-19T01:01:24.652Z,85.48
2022-12-19T01:02:30.761Z,84.70
2022-12-19T01:03:35.239Z,85.35
2022-12-19T01:04:41.962Z,86.68
2022-12-19T01:05:51.027Z,84.95
2022-12-19T01:07:01.758Z,86.74
2022-12-19T01:08:09.208Z,87.96
2022-12-19T01:09:16.514Z,85.92
2022-12-19T01:10:19.966Z,84.17
2022-12-19T01:11:46.694Z,84.03
2022-12-19T01:12:49.973Z,82.15
2022-12-19T01:13:54.684Z,83.26
2022-12-19T01:15:04.899Z,84.36
2022-12-19T01:16:15.168Z,85.30
2022-12-19T01:17:21.157Z,82.53
2022-12-19T01:18:27.096Z,82.25
2022-12-19T01:19:30.566Z,81.16
2022-12-19T01:20:37.287Z,83.42
2022-12-19T01:21:41.033Z,81.54
2022-12-19T01:22:47.877Z,81.27
2022-12-19T01:23:51.187Z,82.19
2022-12-19T01:24:57.091Z,81.10
2022-12-19T01:26:01.357Z,82.20
2022-12-19T01:27:07.494Z,82.37
2022-12-19T01:28:18.261Z,82.99
2022-12-19T01:29:22.275Z,83.03
2022-12-19T01:30:29.256Z,83.92
2022-12-19T01:31:35.108Z,83.00
2022-12-19T01:32:44.706Z,84.74
2022-12-19T01:33:48.120Z,82.88
2022-12-19T01:34:56.404Z,83.32
2022-12-19T01:36:02.033Z,81.05
2022-12-19T01:37:08.877Z,83.29
2022-12-19T01:38:15.615Z,81.65
2022-12-19T01:39:21.525Z,81.67
2022-12-19T01:40:30.247Z,79.85
2022-12-19T01:41:33.869Z,80.29
2022-12-19T01:42:41.210Z,81.22
2022-12-19T01:44:02.075Z,81.72
2022-12-19T01:45:34.077Z,81.82
2022-12-19T01:46:47.649Z,84.11
2022-12-19T01:48:07.739Z,81.54
2022-12-19T01:49:25.278Z,81.55
2022-12-19T01:50:38.081Z,80.81
2022-12-19T01:51:54.375Z,81.68
2022-12-19T01:53:01.421Z,80.68
2022-12-19T01:54:15.535Z,84.14
2022-12-19T01:55:22.082Z,82.96
2022-12-19T01:56:37.429Z,83.87
2022-12-19T01:57:40.876Z,83.08
2022-12-19T01:58:49.000Z,85.18
2022-12-19T02:00:00.198Z,83.66
2022-12-19T02:01:06.666Z,86.89
2022-12-19T02:02:19.452Z,84.98
2022-12-19T02:03:32.709Z,83.02
2022-12-19T02:04:37.485Z,86.27
2022-12-19T02:05:44.617Z,84.44
2022-12-19T02:06:56.484Z,86.70
2022-12-19T02:08:05.985Z,88.20
2022-12-19T02:09:10.197Z,86.45
2022-12-19T02:10:17.025Z,86.90
2022-12-19T02:11:20.504Z,87.94
2022-12-19T02:12:33.246Z,87.99
2022-12-19T02:13:36.835Z,89.08
2022-12-19T02:14:44.623Z,88.40
2022-12-19T02:16:05.927Z,92.92
2022-12-19T02:17:27.951Z,89.31
2022-12-19T02:18:52.181Z,89.67
2022-12-19T02:20:48.445Z,90.68
2022-12-19T02:22:12.712Z,91.39
2022-12-19T02:24:10.984Z,92.37
2022-12-19T02:26:03.655Z,89.61
2022-12-19T02:28:01.083Z,86.04
2022-12-19T02:29:43.997Z,87.75
2022-12-19T02:31:17.499Z,91.04
2022-12-19T02:32:36.302Z,87.22
2022-12-19T02:33:49.557Z,87.17
2022-12-19T02:35:11.279Z,88.49
2022-12-19T02:36:28.580Z,87.27
2022-12-19T02:37:44.831Z,86.51
2022-12-19T02:39:02.400Z,86.66
2022-12-19T02:40:18.550Z,87.46
2022-12-19T02:41:43.519Z,86.00
2022-12-19T02:43:00.968Z,86.10
2022-12-19T02:44:08.865Z,85.02
2022-12-19T02:45:28.337Z,85.06
2022-12-19T02:46:37.869Z,83.56
2022-12-19T02:47:43.396Z,84.22
2022-12-19T02:48:51.635Z,82.15
2022-12-19T02:49:55.084Z,82.43
2022-12-19T02:51:01.421Z,83.38
2022-12-19T02:52:13.303Z,81.74
2022-12-19T02:53:23.805Z,83.03
2022-12-19T02:54:33.031Z,82.53
2022-12-19T02:55:51.746Z,80.86
2022-12-19T02:57:09.174Z,81.50
2022-12-19T02:58:46.684Z,84.00
2022-12-19T03:00:06.768Z,82.18
2022-12-19T03:01:36.635Z,82.47
2022-12-19T03:03:01.183Z,81.40
2022-12-19T03:04:24.343Z,81.87
2022-12-19T03:05:45.662Z,80.16
2022-12-19T03:07:02.101Z,84.58
2022-12-19T03:08:23.964Z,82.28
2022-12-19T03:09:43.952Z,81.62
2022-12-19T03:11:00.758Z,80.35
2022-12-19T03:12:18.362Z,78.70
2022-12-19T03:13:30.584Z,79.78
2022-12-19T03:14:40.293Z,80.09
2022-12-19T03:15:45.448Z,80.55
2022-12-19T03:16:54.396Z,80.86
2022-12-19T03:18:02.883Z,82.41
2022-12-19T03:19:16.535Z,82.59
2022-12-19T03:20:37.353Z,80.57
2022-12-19T03:21:47.783Z,80.35
2022-12-19T03:22:51.866Z,78.46
2022-12-19T03:24:01.408Z,80.97
2022-12-19T03:25:05.608Z,82.12
2022-12-19T03:26:20.757Z,83.39
2022-12-19T03:27:34.285Z,81.20
2022-12-19T03:28:50.981Z,81.29
2022-12-19T03:30:06.849Z,80.73
2022-12-19T03:31:15.852Z,84.12
2022-12-19T03:32:25.601Z,81.74
2022-12-19T03:33:35.074Z,81.75
2022-12-19T03:34:50.910Z,81.33
2022-12-19T03:36:04.610Z,84.89
2022-12-19T03:37:20.351Z,83.02
2022-12-19T03:38:24.476Z,82.90
2022-12-19T03:39:35.202Z,81.67
2022-12-19T03:40:46.465Z,81.11
2022-12-19T03:42:07.867Z,83.78
2022-12-19T03:43:21.665Z,84.85
2022-12-19T03:44:34.849Z,84.39
2022-12-19T03:45:56.599Z,82.47
2022-12-19T03:47:15.120Z,83.19
2022-12-19T03:48:30.970Z,82.31
2022-12-19T03:49:38.253Z,84.00
2022-12-19T03:51:00.375Z,84.57
2022-12-19T03:52:24.855Z,84.79
2022-12-19T03:53:50.275Z,84.25
2022-12-19T03:55:06.326Z,83.56
2022-12-19T03:56:25.883Z,85.43
2022-12-19T03:57:40.203Z,85.41
2022-12-19T03:58:56.247Z,84.52
2022-12-19T04:00:08.166Z,85.32
2022-12-19T04:01:22.650Z,85.28
2022-12-19T04:02:29.365Z,85.26
2022-12-19T04:03:37.020Z,85.45
2022-12-19T04:04:53.677Z,83.14
2022-12-19T04:06:02.127Z,82.61
2022-12-19T04:07:12.019Z,84.54
2022-12-19T04:08:17.922Z,82.69
2022-12-19T04:09:27.431Z,82.17
2022-12-19T04:10:36.153Z,84.22
2022-12-19T04:11:52.588Z,83.84
2022-12-19T04:13:05.309Z,82.36
2022-12-19T04:14:20.124Z,82.54
2022-12-19T04:15:45.255Z,83.75
2022-12-19T04:16:59.820Z,84.57
2022-12-19T04:18:12.845Z,85.42
2022-12-19T04:19:29.614Z,83.52
2022-12-19T04:20:48.645Z,82.66
2022-12-19T04:22:05.000Z,85.19
2022-12-19T04:23:24.535Z,84.93
2022-12-19T04:24:36.647Z,85.07
2022-12-19T04:25:52.281Z,83.40
2022-12-19T04:27:02.564Z,86.26
2022-12-19T04:28:16.779Z,85.33
2022-12-19T04:29:21.570Z,85.99
2022-12-19T04:30:27.458Z,83.30
2022-12-19T04:31:32.666Z,86.20
2022-12-19T04:32:43.143Z,85.46
2022-12-19T04:33:46.725Z,89.33
2022-12-19T04:34:52.616Z,91.96
2022-12-19T04:35:58.857Z,93.27
2022-12-19T04:37:06.754Z,92.67
2022-12-19T04:38:10.230Z,95.63
2022-12-19T04:39:16.271Z,99.53
2022-12-19T04:40:19.713Z,98.94
2022-12-19T04:41:25.613Z,97.76
2022-12-19T04:42:29.856Z,105.79
2022-12-19T04:43:36.063Z,106.05
2022-12-19T04:44:39.367Z,100.42
2022-12-19T04:45:45.552Z,94.45
2022-12-19T04:46:49.370Z,94.12
2022-12-19T04:47:56.067Z,96.04
2022-12-19T04:48:59.390Z,96.04
2022-12-19T04:50:05.557Z,98.91
2022-12-19T04:51:11.477Z,98.85
2022-12-19T04:52:17.402Z,98.50
2022-12-19T04:53:21.524Z,100.21
2022-12-19T04:54:27.380Z,101.84
2022-12-19T04:55:30.927Z,102.68
2022-12-19T04:56:36.829Z,105.30
2022-12-19T04:57:40.078Z,104.22
2022-12-19T04:58:46.805Z,103.53
2022-12-19T04:59:50.444Z,103.49
2022-12-19T05:00:56.310Z,112.88
2022-12-19T05:02:00.735Z,119.15
2022-12-19T05:03:06.881Z,118.88
2022-12-19T05:04:11.193Z,118.51
2022-12-19T05:05:18.412Z,116.93
2022-12-19T05:06:24.459Z,113.03
2022-12-19T05:07:30.479Z,109.46
2022-12-19T05:08:34.461Z,108.85
2022-12-19T05:09:41.327Z,109.07
2022-12-19T05:10:44.593Z,108.63
2022-12-19T05:11:50.987Z,108.59
2022-12-19T05:12:55.580Z,117.13
2022-12-19T05:14:02.406Z,119.04
2022-12-19T05:15:08.848Z,108.78
2022-12-19T05:16:16.386Z,104.92
2022-12-19T05:17:19.743Z,103.18
2022-12-19T05:18:25.815Z,100.13
2022-12-19T05:19:32.315Z,97.24
2022-12-19T05:20:38.117Z,96.86
2022-12-19T05:21:46.867Z,99.59
2022-12-19T05:22:50.186Z,100.87
2022-12-19T05:23:56.104Z,103.90
2022-12-19T05:24:59.389Z,99.59
2022-12-19T05:26:08.795Z,98.09
2022-12-19T05:27:12.098Z,96.95
2022-12-19T05:28:19.697Z,99.59
2022-12-19T05:29:23.337Z,98.18
2022-12-19T05:30:29.250Z,99.16
2022-12-19T05:31:33.507Z,95.29
2022-12-19T05:32:39.444Z,96.90
2022-12-19T05:33:43.947Z,98.08
2022-12-19T05:34:50.004Z,99.30
2022-12-19T05:35:53.318Z,100.89
2022-12-19T05:37:03.754Z,101.60
2022-12-19T05:38:07.396Z,103.64
2022-12-19T05:39:13.772Z,102.33
2022-12-19T05:40:17.220Z,103.21
2022-12-19T05:41:25.638Z,106.73
2022-12-19T05:42:29.736Z,104.84
2022-12-19T05:43:35.675Z,101.23
2022-12-19T05:44:38.977Z,101.55
2022-12-19T05:45:44.996Z,103.16
2022-12-19T05:46:48.468Z,102.75
2022-12-19T05:47:59.966Z,101.11
2022-12-19T05:49:04.721Z,102.61
2022-12-19T05:50:12.884Z,106.49
2022-12-19T05:51:17.020Z,105.44
2022-12-19T05:52:25.609Z,103.36
2022-12-19T05:53:30.524Z,103.10
2022-12-19T05:54:36.563Z,102.50
2022-12-19T05:55:39.918Z,104.44
2022-12-19T05:56:45.924Z,103.64
2022-12-19T05:57:49.462Z,99.28
2022-12-19T05:58:56.216Z,97.56
2022-12-19T06:00:00.017Z,100.35
2022-12-19T06:01:07.560Z,102.91
2022-12-19T06:02:12.759Z,102.53
2022-12-19T06:03:18.894Z,99.16
2022-12-19T06:04:23.197Z,99.84
2022-12-19T06:05:29.137Z,95.92
2022-12-19T06:06:34.996Z,100.32
2022-12-19T06:07:42.565Z,99.31
2022-12-19T06:08:49.404Z,95.18
2022-12-19T06:09:53.574Z,97.13
2022-12-19T06:11:02.797Z,98.23
2022-12-19T06:12:07.197Z,97.04
2022-12-19T06:13:13.394Z,93.78
2022-12-19T06:14:19.650Z,93.15
2022-12-19T06:15:23.771Z,94.29
2022-12-19T06:16:29.764Z,93.33
2022-12-19T06:17:33.219Z,91.16
2022-12-19T06:18:42.990Z,90.30
2022-12-19T06:19:48.270Z,93.37
2022-12-19T06:21:01.569Z,93.32
2022-12-19T06:22:05.018Z,90.76
2022-12-19T06:23:13.592Z,89.46
2022-12-19T06:24:17.575Z,92.86
2022-12-19T06:25:25.822Z,93.51
2022-12-19T06:26:31.472Z,95.63
2022-12-19T06:27:37.817Z,93.91
2022-12-19T06:28:41.167Z,92.52
2022-12-19T06:29:47.383Z,95.79
2022-12-19T06:30:50.941Z,91.36
2022-12-19T06:31:57.812Z,91.55
2022-12-19T06:33:01.349Z,96.32
2022-12-19T06:34:07.563Z,95.47
2022-12-19T06:35:11.561Z,97.24
2022-12-19T06:36:25.445Z,99.48
2022-12-19T06:37:29.689Z,97.19
2022-12-19T06:38:38.879Z,102.02
2022-12-19T06:39:42.230Z,104.10
2022-12-19T06:41:01.261Z,109.47
2022-12-19T06:42:20.308Z,114.76
2022-12-19T06:43:29.565Z,117.81
2022-12-19T06:44:34.114Z,111.60
2022-12-19T06:45:40.149Z,115.48
2022-12-19T06:46:44.743Z,112.88
2022-12-19T06:47:50.689Z,108.80
2022-12-19T06:48:58.864Z,105.58
2022-12-19T06:50:04.987Z,104.34
2022-12-19T06:51:08.783Z,105.82
2022-12-19T06:52:15.647Z,108.25
2022-12-19T06:53:21.812Z,109.60
2022-12-19T06:54:31.709Z,104.96
2022-12-19T06:55:37.559Z,107.05
2022-12-19T06:56:46.582Z,107.02
2022-12-19T06:57:49.901Z,102.88
2022-12-19T06:58:57.064Z,102.89
2022-12-19T07:00:03.897Z,103.75
2022-12-19T07:01:07.419Z,100.67
2022-12-19T07:02:31.550Z,105.04
2022-12-19T07:03:41.567Z,104.72
2022-12-19T07:04:54.652Z,107.72
2022-12-19T07:05:58.941Z,109.40
2022-12-19T07:07:05.167Z,106.76
2022-12-19T07:08:14.071Z,108.90
2022-12-19T07:09:17.829Z,106.68
2022-12-19T07:10:26.586Z,102.62
2022-12-19T07:11:30.782Z,100.88
2022-12-19T07:12:36.681Z,103.29
2022-12-19T07:13:40.110Z,101.49
2022-12-19T07:14:51.701Z,104.25
2022-12-19T07:16:07.291Z,105.02
2022-12-19T07:17:16.553Z,108.83
2022-12-19T07:18:20.045Z,107.23
2022-12-19T07:19:29.160Z,106.44
2022-12-19T07:20:44.877Z,103.04
2022-12-19T07:21:52.469Z,99.76
2022-12-19T07:22:56.918Z,99.35
2022-12-19T07:24:04.289Z,98.83
2022-12-19T07:25:10.054Z,98.44
2022-12-19T07:26:18.655Z,97.29
2022-12-19T07:27:28.563Z,99.24
2022-12-19T07:28:44.725Z,95.28
2022-12-19T07:29:50.688Z,96.26
2022-12-19T07:30:54.311Z,99.00
2022-12-19T07:32:00.398Z,98.91
2022-12-19T07:33:08.916Z,100.50
2022-12-19T07:34:19.259Z,101.94
2022-12-19T07:35:24.616Z,101.46
2022-12-19T07:36:30.884Z,102.28
2022-12-19T07:37:36.967Z,101.95
2022-12-19T07:38:40.294Z,103.12
2022-12-19T07:39:47.145Z,100.93
2022-12-19T07:40:53.311Z,105.81
2022-12-19T07:42:02.180Z,107.49
2022-12-19T07:43:17.596Z,106.80
2022-12-19T07:44:23.785Z,107.89
2022-12-19T07:45:31.081Z,104.06
2022-12-19T07:46:37.211Z,105.75
2022-12-19T07:47:40.589Z,104.58
2022-12-19T07:48:46.763Z,103.96
2022-12-19T07:49:50.272Z,108.15
2022-12-19T07:50:57.507Z,105.70
2022-12-19T07:52:03.931Z,105.99
2022-12-19T07:53:09.932Z,108.30
2022-12-19T07:54:18.045Z,107.12
2022-12-19T07:55:24.199Z,104.64
2022-12-19T07:56:28.987Z,105.66
2022-12-19T07:57:37.659Z,102.00
2022-12-19T07:58:41.116Z,101.22
2022-12-19T07:59:47.289Z,100.88
2022-12-19T08:00:58.770Z,98.62
2022-12-19T08:02:03.561Z,99.88
2022-12-19T08:03:09.723Z,99.98
2022-12-19T08:04:13.936Z,97.95
2022-12-19T08:05:20.470Z,98.83
2022-12-19T08:06:24.912Z,97.73
2022-12-19T08:07:31.727Z,96.50
2022-12-19T08:08:38.586Z,96.93
2022-12-19T08:09:44.496Z,97.97
2022-12-19T08:10:47.860Z,99.57
2022-12-19T08:11:53.688Z,98.25
2022-12-19T08:13:03.073Z,103.03
2022-12-19T08:14:06.542Z,107.86
2022-12-19T08:15:13.704Z,110.66
2022-12-19T08:16:19.810Z,111.99
2022-12-19T08:17:26.519Z,109.49
2022-12-19T08:18:33.494Z,107.03
2022-12-19T08:19:39.536Z,105.53
2022-12-19T08:20:49.523Z,104.38
2022-12-19T08:21:55.537Z,103.57
2022-12-19T08:23:01.574Z,103.88
2022-12-19T08:24:07.161Z,102.82
2022-12-19T08:25:13.661Z,100.84
2022-12-19T08:26:25.576Z,98.75
2022-12-19T08:27:31.828Z,94.25
2022-12-19T08:28:40.925Z,95.99
2022-12-19T08:29:48.158Z,94.82
2022-12-19T08:30:54.368Z,96.37
2022-12-19T08:32:00.453Z,96.61
2022-12-19T08:33:07.026Z,106.42
2022-12-19T08:34:10.630Z,110.16
2022-12-19T08:35:17.560Z,112.80
2022-12-19T08:36:21.998Z,114.42
2022-12-19T08:37:29.924Z,109.53
2022-12-19T08:38:33.261Z,104.27
2022-12-19T08:39:39.367Z,102.00
2022-12-19T08:40:47.661Z,99.58
2022-12-19T08:41:53.723Z,96.50
2022-12-19T08:42:58.282Z,97.97
2022-12-19T08:44:07.358Z,100.62
2022-12-19T08:45:13.914Z,99.87
2022-12-19T08:46:21.808Z,95.00
2022-12-19T08:47:27.967Z,93.86
2022-12-19T08:48:36.156Z,95.04
2022-12-19T08:49:42.424Z,101.86
2022-12-19T08:50:54.626Z,103.84
2022-12-19T08:52:01.581Z,99.28
2022-12-19T08:53:08.366Z,98.33
2022-12-19T08:54:15.548Z,98.75
2022-12-19T08:55:21.672Z,97.01
2022-12-19T08:56:27.773Z,95.59
2022-12-19T08:57:34.741Z,96.12
2022-12-19T08:58:40.712Z,97.39
2022-12-19T08:59:51.420Z,96.11
2022-12-19T09:01:05.263Z,99.70
2022-12-19T09:02:15.289Z,98.27
2022-12-19T09:03:22.710Z,101.09
2022-12-19T09:06:01.889Z,97.95
2022-12-19T09:06:07.095Z,98.59
2022-12-19T09:07:16.217Z,92.68
2022-12-19T09:08:23.168Z,90.37
2022-12-19T09:09:29.569Z,89.58
2022-12-19T09:10:38.649Z,92.25
2022-12-19T09:11:48.141Z,91.40
2022-12-19T09:12:58.039Z,96.00
2022-12-19T09:14:05.312Z,93.44
2022-12-19T09:15:14.385Z,94.34
2022-12-19T09:16:24.101Z,95.24
2022-12-19T09:17:31.422Z,95.65
2022-12-19T09:18:39.858Z,92.17
2022-12-19T09:19:48.535Z,94.75
2022-12-19T09:20:57.920Z,93.82
2022-12-19T09:22:04.088Z,93.87
2022-12-19T09:23:10.145Z,93.02
2022-12-19T09:24:16.120Z,95.60
2022-12-19T09:25:22.861Z,95.44
2022-12-19T09:26:33.683Z,95.39
2022-12-19T09:28:17.390Z,95.06
2022-12-19T09:29:21.109Z,95.94
2022-12-19T09:30:32.080Z,94.64
2022-12-19T09:31:40.552Z,94.25
2022-12-19T09:32:48.109Z,92.46
2022-12-19T09:33:55.026Z,93.75
2022-12-19T09:35:00.948Z,92.33
2022-12-19T09:36:11.849Z,91.56
2022-12-19T09:37:18.110Z,91.28
2022-12-19T09:38:23.549Z,94.20
2022-12-19T09:39:29.531Z,97.71
2022-12-19T09:40:58.219Z,99.08
2022-12-19T09:42:59.342Z,124.64
2022-12-19T09:44:26.377Z,125.36
2022-12-19T09:45:55.751Z,128.92
2022-12-19T09:47:06.446Z,119.44
2022-12-19T09:48:23.811Z,114.04
2022-12-19T09:49:41.647Z,109.17
2022-12-19T09:51:10.400Z,109.04
2022-12-19T09:52:25.005Z,113.34
2022-12-19T09:53:54.288Z,111.97
2022-12-19T09:55:16.822Z,114.94
2022-12-19T09:56:29.174Z,119.05
2022-12-19T09:57:47.448Z,126.06
2022-12-19T09:59:07.855Z,120.43
2022-12-19T10:00:21.674Z,117.70
2022-12-19T10:01:42.452Z,115.93
2022-12-19T10:02:59.578Z,109.87
2022-12-19T10:04:18.644Z,108.22
2022-12-19T10:06:24.927Z,108.54
2022-12-19T10:07:18.250Z,107.46
2022-12-19T10:08:47.691Z,106.75
2022-12-19T10:12:34.499Z,100.38
2022-12-19T10:12:45.179Z,102.42
2022-12-19T10:13:37.364Z,99.16
2022-12-19T10:15:03.398Z,98.11
2022-12-19T10:16:22.523Z,96.28
2022-12-19T10:18:01.130Z,93.42
2022-12-19T10:19:12.293Z,94.44
2022-12-19T10:20:32.785Z,92.02
2022-12-19T10:22:17.805Z,93.59
2022-12-19T10:24:19.035Z,90.58
2022-12-19T10:25:57.702Z,92.97
2022-12-19T10:27:16.346Z,89.41
2022-12-19T10:28:58.622Z,88.70
2022-12-19T10:30:17.309Z,87.82
2022-12-19T10:31:35.991Z,88.24
2022-12-19T10:33:07.085Z,88.09
2022-12-19T10:34:25.394Z,89.62
2022-12-19T10:35:37.723Z,89.13
2022-12-19T10:38:34.329Z,90.89
2022-12-19T10:40:00.650Z,95.45
2022-12-19T10:41:19.881Z,92.53
2022-12-19T10:42:39.577Z,95.15
2022-12-19T10:44:06.108Z,94.26
2022-12-19T10:45:19.689Z,90.97
2022-12-19T10:46:41.136Z,94.49
2022-12-19T10:47:50.887Z,96.86
2022-12-19T10:48:57.914Z,99.78
2022-12-19T10:50:09.222Z,107.05
2022-12-19T10:51:25.936Z,109.06
2022-12-19T10:52:57.002Z,107.88
2022-12-19T10:54:04.349Z,109.97
2022-12-19T10:55:40.782Z,104.16
2022-12-19T10:56:46.933Z,111.92
2022-12-19T10:57:50.200Z,112.52
2022-12-19T10:58:59.133Z,119.73
2022-12-19T11:00:20.385Z,119.82
2022-12-19T11:01:30.362Z,116.06
2022-12-19T11:02:51.966Z,115.26
2022-12-19T11:04:25.357Z,112.02
2022-12-19T11:05:47.366Z,109.57
2022-12-19T11:07:20.762Z,110.96
2022-12-19T11:08:31.053Z,112.71
2022-12-19T11:09:46.775Z,112.67
2022-12-19T11:13:15.490Z,108.54
2022-12-19T11:17:15.807Z,107.19
2022-12-19T11:18:47.125Z,107.44
2022-12-19T11:20:24.717Z,107.40
2022-12-19T11:27:46.450Z,107.45
2022-12-19T11:28:15.652Z,111.42
2022-12-19T11:29:25.414Z,107.44
2022-12-19T11:29:30.352Z,109.63
2022-12-19T11:29:37.047Z,106.23
2022-12-19T11:30:46.255Z,108.84
2022-12-19T11:30:47.658Z,107.05
2022-12-19T11:31:27.998Z,109.05
2022-12-19T11:31:46.584Z,107.18
2022-12-19T11:32:42.298Z,108.83
2022-12-19T11:33:50.764Z,108.12
2022-12-19T11:35:05.489Z,105.32
2022-12-19T11:36:31.856Z,107.91
2022-12-19T11:37:53.886Z,110.28
2022-12-19T11:39:03.408Z,108.36
2022-12-19T11:40:22.360Z,108.86
2022-12-19T11:41:43.943Z,109.48
2022-12-19T11:43:42.089Z,108.85
2022-12-19T11:44:39.310Z,109.37
2022-12-19T11:46:01.549Z,109.63
2022-12-19T11:47:27.899Z,110.67
2022-12-19T11:48:44.256Z,112.94
2022-12-19T11:50:06.302Z,116.70
2022-12-19T11:51:30.137Z,118.39
2022-12-19T11:53:03.964Z,119.77
2022-12-19T11:54:23.677Z,117.14
2022-12-19T11:55:45.168Z,115.45
2022-12-19T11:56:52.259Z,118.43
2022-12-19T11:57:58.917Z,113.61
2022-12-19T11:59:18.173Z,111.28
2022-12-19T12:00:28.840Z,113.46
2022-12-19T12:02:02.628Z,112.32
2022-12-19T12:03:49.534Z,114.64
2022-12-19T12:05:44.914Z,112.35
2022-12-19T12:06:57.785Z,115.27
2022-12-19T12:10:14.470Z,111.56
2022-12-19T12:13:43.574Z,115.09
2022-12-19T12:22:35.653Z,116.13
2022-12-19T12:22:42.147Z,113.80
2022-12-19T12:26:51.559Z,115.61
2022-12-19T12:30:46.866Z,115.51
2022-12-19T12:31:10.063Z,118.23
2022-12-19T12:31:14.691Z,118.21
2022-12-19T12:31:17.766Z,118.10
2022-12-19T12:31:44.385Z,118.20
2022-12-19T12:31:44.393Z,123.18
2022-12-19T12:32:03.005Z,123.39
2022-12-19T12:32:03.523Z,113.93
2022-12-19T12:35:13.681Z,120.95
2022-12-19T12:35:40.781Z,119.45
2022-12-19T12:39:07.212Z,123.75
2022-12-19T12:41:01.470Z,124.77
2022-12-19T12:42:33.796Z,128.66
2022-12-19T12:44:07.996Z,133.66
2022-12-19T12:45:26.213Z,134.91
2022-12-19T12:46:42.236Z,138.27
2022-12-19T12:47:55.050Z,138.11
2022-12-19T12:49:04.823Z,136.89
2022-12-19T12:50:20.236Z,137.35
2022-12-19T12:51:30.100Z,141.80
2022-12-19T12:52:46.161Z,143.92
2022-12-19T12:54:07.881Z,145.64
2022-12-19T12:55:27.660Z,142.11
2022-12-19T12:56:35.626Z,154.65
2022-12-19T12:57:42.268Z,156.12
2022-12-19T12:59:24.140Z,147.34
2022-12-19T13:00:33.997Z,146.96
2022-12-19T13:01:41.424Z,143.75
2022-12-19T13:02:53.620Z,147.18
2022-12-19T13:04:05.168Z,145.57
2022-12-19T13:05:39.947Z,146.47
2022-12-19T13:07:30.334Z,145.71
2022-12-19T13:08:50.640Z,149.32
2022-12-19T13:10:20.055Z,146.74
2022-12-19T13:11:56.302Z,148.89
2022-12-19T13:13:14.972Z,147.81
2022-12-19T13:14:51.827Z,151.86
2022-12-19T13:15:57.874Z,150.27
2022-12-19T13:17:05.745Z,151.11
2022-12-19T13:18:42.353Z,160.00
2022-12-19T13:19:56.891Z,157.60
2022-12-19T13:21:06.851Z,160.46
2022-12-19T13:22:42.539Z,163.67
2022-12-19T13:23:52.550Z,164.66
2022-12-19T13:25:01.539Z,166.54
2022-12-19T13:26:26.208Z,163.24
2022-12-19T13:27:42.825Z,159.13
2022-12-19T13:28:47.103Z,148.36
2022-12-19T13:30:08.214Z,151.34
2022-12-19T13:31:26.473Z,155.46
2022-12-19T13:32:58.078Z,163.65
2022-12-19T13:34:22.377Z,156.66
2022-12-19T13:37:42.407Z,159.75
2022-12-19T13:39:59.352Z,153.94
2022-12-19T13:39:59.625Z,147.15
2022-12-19T13:40:37.375Z,146.12
2022-12-19T13:41:58.430Z,148.83
2022-12-19T13:43:33.635Z,157.72
2022-12-19T13:44:45.404Z,169.36
2022-12-19T13:45:57.367Z,164.64
2022-12-19T13:47:03.562Z,167.36
2022-12-19T13:48:23.898Z,181.86
2022-12-19T13:49:36.592Z,189.16
2022-12-19T13:50:43.588Z,184.48
2022-12-19T13:51:57.225Z,176.14
2022-12-19T13:53:03.777Z,173.06
2022-12-19T13:54:29.168Z,172.34
2022-12-19T13:55:43.032Z,166.49
2022-12-19T13:56:49.839Z,162.43
2022-12-19T13:58:00.604Z,163.52
2022-12-19T13:59:09.025Z,161.23
2022-12-19T14:00:24.559Z,166.84
2022-12-19T14:01:32.194Z,162.13
2022-12-19T14:02:51.850Z,161.81
2022-12-19T14:04:02.649Z,162.65
2022-12-19T14:06:14.308Z,165.36
2022-12-19T14:07:04.301Z,166.22
2022-12-19T14:08:18.218Z,163.30
2022-12-19T14:11:28.720Z,169.31
2022-12-19T14:11:33.971Z,187.32
2022-12-19T14:13:43.271Z,190.52
2022-12-19T14:14:33.416Z,191.09
2022-12-19T14:15:42.571Z,186.42
2022-12-19T14:16:49.953Z,186.95
2022-12-19T14:17:56.073Z,183.80
2022-12-19T14:19:30.189Z,183.18
2022-12-19T14:22:11.380Z,179.36
2022-12-19T14:22:20.713Z,177.45
2022-12-19T14:23:42.889Z,175.25
2022-12-19T14:25:52.368Z,177.37
2022-12-19T14:28:23.444Z,178.38
2022-12-19T14:28:24.713Z,170.44
2022-12-19T14:30:28.908Z,177.50
2022-12-19T14:31:20.592Z,175.90
2022-12-19T14:33:44.566Z,180.64
2022-12-19T14:34:27.088Z,181.72
2022-12-19T14:36:06.398Z,184.23
2022-12-19T14:37:03.533Z,195.60
2022-12-19T14:39:20.703Z,198.89
2022-12-19T14:39:44.129Z,210.14
2022-12-19T14:41:07.387Z,194.76
2022-12-19T14:43:39.465Z,188.07
2022-12-19T14:52:11.526Z,168.97
2022-12-19T14:52:50.878Z,180.66
2022-12-19T14:53:52.730Z,191.53
2022-12-19T14:54:01.422Z,193.42
2022-12-19T14:54:23.043Z,201.04
2022-12-19T14:54:25.523Z,195.53
2022-12-19T14:54:37.733Z,204.25
2022-12-19T14:56:16.054Z,199.07
2022-12-19T14:57:03.914Z,197.42
2022-12-19T14:58:53.315Z,187.33
2022-12-19T14:59:46.362Z,181.55
2022-12-19T15:01:09.286Z,180.29
2022-12-19T15:02:30.642Z,178.12
2022-12-19T15:04:50.555Z,181.01
2022-12-19T15:05:24.276Z,179.09
2022-12-19T15:07:07.863Z,183.26
2022-12-19T15:08:04.457Z,179.96
2022-12-19T15:10:58.387Z,180.85
2022-12-19T15:11:05.268Z,177.05
2022-12-19T15:14:48.564Z,204.98
2022-12-19T15:14:56.319Z,216.05
2022-12-19T15:15:46.303Z,216.20
2022-12-19T15:17:06.162Z,218.85
2022-12-19T15:18:28.897Z,223.14
2022-12-19T15:19:35.375Z,214.52
2022-12-19T15:20:42.131Z,202.46
2022-12-19T15:21:49.508Z,194.61
2022-12-19T15:22:55.582Z,174.85
2022-12-19T15:24:02.526Z,173.84
2022-12-19T15:25:17.516Z,192.18
2022-12-19T15:26:49.133Z,200.70
2022-12-19T15:27:58.330Z,189.47
2022-12-19T15:29:19.891Z,194.76
2022-12-19T15:30:35.000Z,241.65
2022-12-19T15:31:44.199Z,234.02
2022-12-19T15:32:51.499Z,263.34
2022-12-19T15:35:22.769Z,230.08
2022-12-19T15:36:26.371Z,237.23
2022-12-19T15:37:32.448Z,243.07
2022-12-19T15:38:35.995Z,229.10
2022-12-19T15:39:42.368Z,245.35
2022-12-19T15:40:49.576Z,261.14
2022-12-19T15:41:59.363Z,279.59
2022-12-19T15:43:23.765Z,283.73
2022-12-19T15:44:39.657Z,280.85
2022-12-19T15:45:45.921Z,286.21
2022-12-19T15:46:52.919Z,280.27
2022-12-19T15:47:59.282Z,288.74